sensor_id;sensor_type;location;lat;lon;timestamp;pressure;altitude;pressure_sealevel;temperature;humidity
11987;BME280;6053;51.382;6.768;2023-05-23T00:00:15;101340.84;;;17.52;100.00
11987;BME280;6053;51.382;6.768;2023-05-23T00:02:45;101337.28;;;18.26;100.00
11987;BME280;6053;51.382;6.768;2023-05-23T00:05:16;101335.81;;;19.29;100.00
11987;BME280;6053;51.382;6.768;2023-05-23T00:07:46;101331.84;;;18.09;100.00
11987;BME280;6053;51.382;6.768;2023-05-23T00:10:15;101336.78;;;18.87;100.00
11987;BME280;6053;51.382;6.768;2023-05-23T00:12:47;101340.22;;;19.10;100.00
11987;BME280;6053;51.382;6.768;2023-05-23T00:15:18;101340.22;;;19.10;100.00
11987;BME280;6053;51.382;6.768;2023-05-23T00:17:49;101344.56;;;18.75;100.00
11987;BME280;6053;51.382;6.768;2023-05-23T00:20:18;101337.03;;;17.31;100.00
11987;BME280;6053;51.382;6.768;2023-05-23T00:22:47;101349.66;;;18.93;100.00
11987;BME280;6053;51.382;6.768;2023-05-23T00:25:19;101339.75;;;18.65;100.00
11987;BME280;6053;51.382;6.768;2023-05-23T00:27:52;101346.44;;;18.17;100.00
11987;BME280;6053;51.382;6.768;2023-05-23T00:30:21;101347.50;;;18.53;100.00
11987;BME280;6053;51.382;6.768;2023-05-23T00:32:50;101344.03;;;18.83;100.00
11987;BME280;6053;51.382;6.768;2023-05-23T00:35:22;101348.97;;;19.39;100.00
11987;BME280;6053;51.382;6.768;2023-05-23T00:37:51;101359.00;;;19.24;100.00
11987;BME280;6053;51.382;6.768;2023-05-23T00:40:22;101354.19;;;18.09;100.00
11987;BME280;6053;51.382;6.768;2023-05-23T00:42:53;101349.59;;;17.93;100.00
11987;BME280;6053;51.382;6.768;2023-05-23T00:45:27;101350.97;;;17.90;100.00
11987;BME280;6053;51.382;6.768;2023-05-23T00:47:56;101352.44;;;17.98;100.00
11987;BME280;6053;51.382;6.768;2023-05-23T00:50:27;101354.31;;;17.33;100.00
11987;BME280;6053;51.382;6.768;2023-05-23T00:52:59;101348.59;;;16.96;100.00
11987;BME280;6053;51.382;6.768;2023-05-23T00:55:31;101350.03;;;16.77;100.00
11987;BME280;6053;51.382;6.768;2023-05-23T00:58:03;101361.81;;;17.06;100.00
11987;BME280;6053;51.382;6.768;2023-05-23T01:00:33;101352.84;;;17.26;100.00
11987;BME280;6053;51.382;6.768;2023-05-23T01:03:04;101359.63;;;18.26;100.00
11987;BME280;6053;51.382;6.768;2023-05-23T01:05:33;101363.06;;;18.44;100.00
11987;BME280;6053;51.382;6.768;2023-05-23T01:08:02;101357.75;;;18.90;100.00
11987;BME280;6053;51.382;6.768;2023-05-23T01:10:36;101356.75;;;18.58;100.00
11987;BME280;6053;51.382;6.768;2023-05-23T01:13:20;101350.81;;;19.02;100.00
11987;BME280;6053;51.382;6.768;2023-05-23T01:15:55;101353.38;;;18.14;100.00
11987;BME280;6053;51.382;6.768;2023-05-23T01:18:36;101354.16;;;19.04;100.00
11987;BME280;6053;51.382;6.768;2023-05-23T01:21:13;101356.09;;;18.89;100.00
11987;BME280;6053;51.382;6.768;2023-05-23T01:24:08;101361.00;;;19.44;100.00
11987;BME280;6053;51.382;6.768;2023-05-23T01:27:01;101356.97;;;19.04;100.00
11987;BME280;6053;51.382;6.768;2023-05-23T01:29:42;101357.19;;;18.88;100.00
11987;BME280;6053;51.382;6.768;2023-05-23T01:32:19;101358.19;;;18.19;100.00
11987;BME280;6053;51.382;6.768;2023-05-23T01:34:52;101365.28;;;18.84;100.00
11987;BME280;6053;51.382;6.768;2023-05-23T01:37:22;101364.28;;;19.16;100.00
11987;BME280;6053;51.382;6.768;2023-05-23T01:39:51;101363.75;;;19.19;100.00
11987;BME280;6053;51.382;6.768;2023-05-23T01:42:20;101375.28;;;19.58;100.00
11987;BME280;6053;51.382;6.768;2023-05-23T01:44:51;101366.03;;;18.69;100.00
11987;BME280;6053;51.382;6.768;2023-05-23T01:47:22;101367.16;;;19.46;100.00
11987;BME280;6053;51.382;6.768;2023-05-23T01:49:54;101370.31;;;18.34;100.00
11987;BME280;6053;51.382;6.768;2023-05-23T01:52:26;101373.25;;;19.23;100.00
11987;BME280;6053;51.382;6.768;2023-05-23T01:54:57;101370.44;;;19.13;100.00
11987;BME280;6053;51.382;6.768;2023-05-23T01:57:29;101373.34;;;18.28;100.00
11987;BME280;6053;51.382;6.768;2023-05-23T02:00:00;101371.44;;;18.86;100.00
11987;BME280;6053;51.382;6.768;2023-05-23T02:02:28;101371.69;;;18.79;100.00
11987;BME280;6053;51.382;6.768;2023-05-23T02:04:59;101374.50;;;19.78;100.00
11987;BME280;6053;51.382;6.768;2023-05-23T02:07:28;101378.25;;;19.11;100.00
11987;BME280;6053;51.382;6.768;2023-05-23T02:09:58;101378.53;;;19.09;100.00
11987;BME280;6053;51.382;6.768;2023-05-23T02:12:27;101390.25;;;18.53;100.00
11987;BME280;6053;51.382;6.768;2023-05-23T02:14:57;101390.00;;;18.55;100.00
11987;BME280;6053;51.382;6.768;2023-05-23T02:17:27;101386.16;;;19.34;100.00
11987;BME280;6053;51.382;6.768;2023-05-23T02:19:58;101380.91;;;18.75;100.00
11987;BME280;6053;51.382;6.768;2023-05-23T02:22:27;101377.28;;;18.37;100.00
11987;BME280;6053;51.382;6.768;2023-05-23T02:24:56;101386.81;;;18.41;100.00
11987;BME280;6053;51.382;6.768;2023-05-23T02:27:25;101374.41;;;17.62;100.00
11987;BME280;6053;51.382;6.768;2023-05-23T02:29:55;101382.59;;;18.76;100.00
11987;BME280;6053;51.382;6.768;2023-05-23T02:32:24;101381.03;;;17.78;100.00
11987;BME280;6053;51.382;6.768;2023-05-23T02:34:55;101385.22;;;18.13;100.00
11987;BME280;6053;51.382;6.768;2023-05-23T02:37:24;101380.06;;;17.40;100.00
11987;BME280;6053;51.382;6.768;2023-05-23T02:39:56;101385.25;;;17.59;100.00
11987;BME280;6053;51.382;6.768;2023-05-23T02:42:26;101396.16;;;17.33;100.00
11987;BME280;6053;51.382;6.768;2023-05-23T02:44:55;101389.50;;;17.88;100.00
11987;BME280;6053;51.382;6.768;2023-05-23T02:47:24;101395.16;;;17.44;100.00
11987;BME280;6053;51.382;6.768;2023-05-23T02:49:54;101397.19;;;18.93;100.00
11987;BME280;6053;51.382;6.768;2023-05-23T02:52:24;101392.41;;;18.41;100.00
11987;BME280;6053;51.382;6.768;2023-05-23T02:54:54;101407.00;;;19.69;100.00
11987;BME280;6053;51.382;6.768;2023-05-23T02:57:23;101398.06;;;19.04;100.00
11987;BME280;6053;51.382;6.768;2023-05-23T02:59:52;101389.66;;;18.09;100.00
11987;BME280;6053;51.382;6.768;2023-05-23T03:02:22;101396.47;;;18.71;100.00
11987;BME280;6053;51.382;6.768;2023-05-23T03:04:51;101402.34;;;18.69;100.00
11987;BME280;6053;51.382;6.768;2023-05-23T03:07:22;101397.84;;;18.58;100.00
11987;BME280;6053;51.382;6.768;2023-05-23T03:09:54;101394.66;;;18.07;100.00
11987;BME280;6053;51.382;6.768;2023-05-23T03:12:24;101394.75;;;17.31;100.00
11987;BME280;6053;51.382;6.768;2023-05-23T03:14:52;101407.56;;;18.98;100.00
11987;BME280;6053;51.382;6.768;2023-05-23T03:17:24;101404.22;;;17.84;100.00
11987;BME280;6053;51.382;6.768;2023-05-23T03:19:54;101410.63;;;18.54;100.00
11987;BME280;6053;51.382;6.768;2023-05-23T03:22:25;101397.25;;;17.81;100.00
11987;BME280;6053;51.382;6.768;2023-05-23T03:24:54;101395.63;;;17.90;100.00
11987;BME280;6053;51.382;6.768;2023-05-23T03:27:23;101406.44;;;18.51;100.00
11987;BME280;6053;51.382;6.768;2023-05-23T03:29:54;101396.97;;;17.83;100.00
11987;BME280;6053;51.382;6.768;2023-05-23T03:32:24;101409.00;;;17.61;100.00
11987;BME280;6053;51.382;6.768;2023-05-23T03:34:53;101414.59;;;18.21;100.00
11987;BME280;6053;51.382;6.768;2023-05-23T03:37:23;101415.75;;;18.25;100.00
11987;BME280;6053;51.382;6.768;2023-05-23T03:39:53;101418.78;;;16.54;100.00
11987;BME280;6053;51.382;6.768;2023-05-23T03:42:22;101421.25;;;17.60;100.00
11987;BME280;6053;51.382;6.768;2023-05-23T03:44:53;101410.78;;;17.46;100.00
11987;BME280;6053;51.382;6.768;2023-05-23T03:47:24;101427.41;;;17.13;100.00
11987;BME280;6053;51.382;6.768;2023-05-23T03:49:58;101427.31;;;17.52;100.00
11987;BME280;6053;51.382;6.768;2023-05-23T03:52:28;101431.16;;;17.46;100.00
11987;BME280;6053;51.382;6.768;2023-05-23T03:54:58;101434.25;;;17.99;100.00
11987;BME280;6053;51.382;6.768;2023-05-23T03:57:28;101434.28;;;17.77;100.00
11987;BME280;6053;51.382;6.768;2023-05-23T03:59:57;101438.44;;;17.47;100.00
11987;BME280;6053;51.382;6.768;2023-05-23T04:02:29;101445.31;;;18.21;100.00
11987;BME280;6053;51.382;6.768;2023-05-23T04:04:59;101439.69;;;17.12;100.00
11987;BME280;6053;51.382;6.768;2023-05-23T04:07:31;101436.75;;;16.80;100.00
11987;BME280;6053;51.382;6.768;2023-05-23T04:10:04;101446.84;;;17.52;100.00
11987;BME280;6053;51.382;6.768;2023-05-23T04:12:38;101448.44;;;17.97;100.00
11987;BME280;6053;51.382;6.768;2023-05-23T04:15:09;101453.16;;;18.24;100.00
11987;BME280;6053;51.382;6.768;2023-05-23T04:17:39;101447.94;;;18.37;100.00
11987;BME280;6053;51.382;6.768;2023-05-23T04:20:10;101461.38;;;18.73;100.00
11987;BME280;6053;51.382;6.768;2023-05-23T04:22:41;101462.22;;;18.73;100.00
11987;BME280;6053;51.382;6.768;2023-05-23T04:25:10;101457.16;;;18.01;100.00
11987;BME280;6053;51.382;6.768;2023-05-23T04:27:40;101461.31;;;17.49;100.00
11987;BME280;6053;51.382;6.768;2023-05-23T04:30:11;101458.22;;;17.73;100.00
11987;BME280;6053;51.382;6.768;2023-05-23T04:32:40;101461.59;;;17.75;100.00
11987;BME280;6053;51.382;6.768;2023-05-23T04:35:09;101463.09;;;17.82;100.00
11987;BME280;6053;51.382;6.768;2023-05-23T04:37:41;101461.22;;;17.17;100.00
11987;BME280;6053;51.382;6.768;2023-05-23T04:40:12;101464.91;;;18.26;100.00
11987;BME280;6053;51.382;6.768;2023-05-23T04:42:41;101460.22;;;17.06;100.00
11987;BME280;6053;51.382;6.768;2023-05-23T04:45:11;101468.22;;;17.41;100.00
11987;BME280;6053;51.382;6.768;2023-05-23T04:47:44;101473.91;;;16.52;100.00
11987;BME280;6053;51.382;6.768;2023-05-23T04:50:13;101469.31;;;16.80;100.00
11987;BME280;6053;51.382;6.768;2023-05-23T04:52:44;101472.38;;;17.88;100.00
11987;BME280;6053;51.382;6.768;2023-05-23T04:55:15;101469.16;;;17.74;100.00
11987;BME280;6053;51.382;6.768;2023-05-23T04:57:44;101473.53;;;18.56;100.00
11987;BME280;6053;51.382;6.768;2023-05-23T05:00:14;101475.56;;;18.34;100.00
11987;BME280;6053;51.382;6.768;2023-05-23T05:02:44;101479.44;;;17.74;100.00
11987;BME280;6053;51.382;6.768;2023-05-23T05:05:13;101477.47;;;17.25;100.00
11987;BME280;6053;51.382;6.768;2023-05-23T05:07:43;101478.84;;;17.23;100.00
11987;BME280;6053;51.382;6.768;2023-05-23T05:10:13;101484.06;;;17.85;100.00
11987;BME280;6053;51.382;6.768;2023-05-23T05:12:43;101477.75;;;17.73;100.00
11987;BME280;6053;51.382;6.768;2023-05-23T05:15:16;101482.50;;;16.17;100.00
11987;BME280;6053;51.382;6.768;2023-05-23T05:17:45;101480.44;;;16.96;100.00
11987;BME280;6053;51.382;6.768;2023-05-23T05:20:16;101500.75;;;17.80;100.00
11987;BME280;6053;51.382;6.768;2023-05-23T05:22:55;101492.53;;;17.46;100.00
11987;BME280;6053;51.382;6.768;2023-05-23T05:25:24;101500.25;;;17.61;100.00
11987;BME280;6053;51.382;6.768;2023-05-23T05:27:53;101502.06;;;16.72;100.00
11987;BME280;6053;51.382;6.768;2023-05-23T05:30:23;101497.94;;;16.92;100.00
11987;BME280;6053;51.382;6.768;2023-05-23T05:32:52;101498.13;;;17.73;100.00
11987;BME280;6053;51.382;6.768;2023-05-23T05:35:26;101506.19;;;17.04;100.00
11987;BME280;6053;51.382;6.768;2023-05-23T05:37:57;101505.91;;;17.93;100.00
11987;BME280;6053;51.382;6.768;2023-05-23T05:40:25;101507.81;;;18.14;100.00
11987;BME280;6053;51.382;6.768;2023-05-23T05:42:55;101510.28;;;17.62;100.00
11987;BME280;6053;51.382;6.768;2023-05-23T05:45:23;101513.47;;;17.05;100.00
11987;BME280;6053;51.382;6.768;2023-05-23T05:47:54;101525.03;;;17.79;100.00
11987;BME280;6053;51.382;6.768;2023-05-23T05:50:24;101525.72;;;17.92;100.00
11987;BME280;6053;51.382;6.768;2023-05-23T05:52:56;101527.09;;;17.89;100.00
11987;BME280;6053;51.382;6.768;2023-05-23T05:55:25;101527.97;;;17.07;100.00
11987;BME280;6053;51.382;6.768;2023-05-23T05:57:57;101536.72;;;16.93;100.00
11987;BME280;6053;51.382;6.768;2023-05-23T06:00:28;101533.16;;;16.98;100.00
11987;BME280;6053;51.382;6.768;2023-05-23T06:02:58;101538.69;;;18.03;100.00
11987;BME280;6053;51.382;6.768;2023-05-23T06:05:27;101539.22;;;17.56;100.00
11987;BME280;6053;51.382;6.768;2023-05-23T06:07:59;101538.03;;;16.74;100.00
11987;BME280;6053;51.382;6.768;2023-05-23T06:10:28;101533.22;;;17.64;100.00
11987;BME280;6053;51.382;6.768;2023-05-23T06:12:57;101536.09;;;17.08;100.00
11987;BME280;6053;51.382;6.768;2023-05-23T06:15:27;101534.53;;;16.79;100.00
11987;BME280;6053;51.382;6.768;2023-05-23T06:17:58;101526.72;;;16.30;100.00
11987;BME280;6053;51.382;6.768;2023-05-23T06:20:27;101536.81;;;17.42;100.00
11987;BME280;6053;51.382;6.768;2023-05-23T06:22:57;101531.44;;;18.02;100.00
11987;BME280;6053;51.382;6.768;2023-05-23T06:25:28;101542.53;;;16.58;100.00
11987;BME280;6053;51.382;6.768;2023-05-23T06:27:58;101541.47;;;17.15;100.00
11987;BME280;6053;51.382;6.768;2023-05-23T06:30:27;101549.53;;;17.99;100.00
11987;BME280;6053;51.382;6.768;2023-05-23T06:32:57;101553.75;;;18.02;100.00
11987;BME280;6053;51.382;6.768;2023-05-23T06:35:28;101549.78;;;16.76;100.00
11987;BME280;6053;51.382;6.768;2023-05-23T06:38:00;101552.47;;;16.71;100.00
11987;BME280;6053;51.382;6.768;2023-05-23T06:40:30;101558.56;;;17.02;100.00
11987;BME280;6053;51.382;6.768;2023-05-23T06:43:03;101544.28;;;16.47;100.00
11987;BME280;6053;51.382;6.768;2023-05-23T06:45:32;101554.72;;;17.25;100.00
11987;BME280;6053;51.382;6.768;2023-05-23T06:48:03;101559.69;;;16.84;100.00
11987;BME280;6053;51.382;6.768;2023-05-23T06:50:33;101567.84;;;16.73;100.00
11987;BME280;6053;51.382;6.768;2023-05-23T06:53:03;101563.75;;;17.54;100.00
11987;BME280;6053;51.382;6.768;2023-05-23T06:55:32;101566.16;;;16.89;100.00
11987;BME280;6053;51.382;6.768;2023-05-23T06:58:04;101564.81;;;17.09;100.00
11987;BME280;6053;51.382;6.768;2023-05-23T07:00:33;101566.06;;;17.40;100.00
11987;BME280;6053;51.382;6.768;2023-05-23T07:03:02;101570.19;;;16.31;100.00
11987;BME280;6053;51.382;6.768;2023-05-23T07:05:32;101577.78;;;16.69;100.00
11987;BME280;6053;51.382;6.768;2023-05-23T07:08:08;101568.38;;;16.25;100.00
11987;BME280;6053;51.382;6.768;2023-05-23T07:10:38;101581.34;;;16.19;100.00
11987;BME280;6053;51.382;6.768;2023-05-23T07:13:08;101580.84;;;16.51;100.00
11987;BME280;6053;51.382;6.768;2023-05-23T07:15:38;101583.00;;;16.32;100.00
11987;BME280;6053;51.382;6.768;2023-05-23T07:18:07;101589.63;;;17.49;100.00
11987;BME280;6053;51.382;6.768;2023-05-23T07:20:36;101590.50;;;17.11;100.00
11987;BME280;6053;51.382;6.768;2023-05-23T07:23:05;101597.66;;;17.07;100.00
11987;BME280;6053;51.382;6.768;2023-05-23T07:25:36;101598.19;;;17.81;100.00
11987;BME280;6053;51.382;6.768;2023-05-23T07:28:20;101604.75;;;17.92;100.00
11987;BME280;6053;51.382;6.768;2023-05-23T07:30:49;101606.28;;;16.43;100.00
11987;BME280;6053;51.382;6.768;2023-05-23T07:33:19;101610.84;;;16.94;100.00
11987;BME280;6053;51.382;6.768;2023-05-23T07:35:48;101604.50;;;17.55;100.00
11987;BME280;6053;51.382;6.768;2023-05-23T07:38:17;101609.69;;;17.46;100.00
11987;BME280;6053;51.382;6.768;2023-05-23T07:40:48;101612.03;;;16.99;100.00
11987;BME280;6053;51.382;6.768;2023-05-23T07:43:37;101609.50;;;17.53;100.00
11987;BME280;6053;51.382;6.768;2023-05-23T07:46:06;101623.69;;;16.79;100.00
11987;BME280;6053;51.382;6.768;2023-05-23T07:48:36;101622.97;;;17.39;100.00
11987;BME280;6053;51.382;6.768;2023-05-23T07:51:05;101626.84;;;16.25;100.00
11987;BME280;6053;51.382;6.768;2023-05-23T07:53:34;101636.91;;;17.39;100.00
11987;BME280;6053;51.382;6.768;2023-05-23T07:56:08;101639.72;;;15.62;100.00
11987;BME280;6053;51.382;6.768;2023-05-23T07:58:37;101639.69;;;15.97;100.00
11987;BME280;6053;51.382;6.768;2023-05-23T08:01:07;101640.28;;;16.57;100.00
11987;BME280;6053;51.382;6.768;2023-05-23T08:03:37;101641.75;;;16.19;100.00
11987;BME280;6053;51.382;6.768;2023-05-23T08:06:07;101649.66;;;16.39;100.00
11987;BME280;6053;51.382;6.768;2023-05-23T08:08:36;101652.69;;;15.33;100.00
11987;BME280;6053;51.382;6.768;2023-05-23T08:11:07;101654.69;;;16.82;100.00
11987;BME280;6053;51.382;6.768;2023-05-23T08:13:38;101658.47;;;16.47;100.00
11987;BME280;6053;51.382;6.768;2023-05-23T08:16:07;101666.88;;;16.07;100.00
11987;BME280;6053;51.382;6.768;2023-05-23T08:18:40;101667.69;;;16.48;100.00
11987;BME280;6053;51.382;6.768;2023-05-23T08:21:12;101665.50;;;15.34;100.00
11987;BME280;6053;51.382;6.768;2023-05-23T08:23:42;101663.66;;;15.28;100.00
11987;BME280;6053;51.382;6.768;2023-05-23T08:26:13;101672.88;;;15.40;100.00
11987;BME280;6053;51.382;6.768;2023-05-23T08:28:43;101679.81;;;16.13;100.00
11987;BME280;6053;51.382;6.768;2023-05-23T08:31:13;101684.09;;;14.68;100.00
11987;BME280;6053;51.382;6.768;2023-05-23T08:33:43;101680.38;;;15.40;100.00
11987;BME280;6053;51.382;6.768;2023-05-23T08:36:12;101680.09;;;15.88;100.00
11987;BME280;6053;51.382;6.768;2023-05-23T08:38:41;101688.44;;;15.88;100.00
11987;BME280;6053;51.382;6.768;2023-05-23T08:41:18;101686.41;;;14.71;100.00
11987;BME280;6053;51.382;6.768;2023-05-23T08:43:48;101689.91;;;14.48;100.00
11987;BME280;6053;51.382;6.768;2023-05-23T08:46:17;101697.50;;;14.59;100.00
11987;BME280;6053;51.382;6.768;2023-05-23T08:48:52;101695.66;;;14.95;100.00
11987;BME280;6053;51.382;6.768;2023-05-23T08:51:22;101702.81;;;15.03;100.00
11987;BME280;6053;51.382;6.768;2023-05-23T08:53:55;101716.00;;;16.13;100.00
11987;BME280;6053;51.382;6.768;2023-05-23T08:56:26;101707.63;;;14.35;100.00
11987;BME280;6053;51.382;6.768;2023-05-23T08:58:56;101714.56;;;15.17;100.00
11987;BME280;6053;51.382;6.768;2023-05-23T09:01:26;101712.22;;;14.60;100.00
11987;BME280;6053;51.382;6.768;2023-05-23T09:03:56;101714.59;;;15.87;100.00
11987;BME280;6053;51.382;6.768;2023-05-23T09:06:30;101725.22;;;15.55;100.00
11987;BME280;6053;51.382;6.768;2023-05-23T09:09:01;101733.47;;;15.73;100.00
11987;BME280;6053;51.382;6.768;2023-05-23T09:11:32;101729.44;;;15.46;100.00
11987;BME280;6053;51.382;6.768;2023-05-23T09:14:02;101738.88;;;15.45;100.00
11987;BME280;6053;51.382;6.768;2023-05-23T09:16:34;101735.72;;;14.76;100.00
11987;BME280;6053;51.382;6.768;2023-05-23T09:19:10;101733.66;;;15.13;100.00
11987;BME280;6053;51.382;6.768;2023-05-23T09:21:42;101735.75;;;14.57;100.00
11987;BME280;6053;51.382;6.768;2023-05-23T09:24:12;101730.63;;;15.15;100.00
11987;BME280;6053;51.382;6.768;2023-05-23T09:26:48;101736.78;;;15.28;100.00
11987;BME280;6053;51.382;6.768;2023-05-23T09:29:19;101732.50;;;16.32;100.00
11987;BME280;6053;51.382;6.768;2023-05-23T09:31:49;101737.31;;;16.77;100.00
11987;BME280;6053;51.382;6.768;2023-05-23T09:34:18;101748.38;;;15.25;100.00
11987;BME280;6053;51.382;6.768;2023-05-23T09:36:47;101750.84;;;14.92;100.00
11987;BME280;6053;51.382;6.768;2023-05-23T09:39:16;101759.09;;;16.51;100.00
11987;BME280;6053;51.382;6.768;2023-05-23T09:41:47;101752.88;;;17.35;100.00
11987;BME280;6053;51.382;6.768;2023-05-23T09:44:23;101742.97;;;15.30;100.00
11987;BME280;6053;51.382;6.768;2023-05-23T09:46:53;101756.41;;;16.56;100.00
11987;BME280;6053;51.382;6.768;2023-05-23T09:49:23;101765.63;;;16.05;100.00
11987;BME280;6053;51.382;6.768;2023-05-23T09:51:58;101760.91;;;16.57;100.00
11987;BME280;6053;51.382;6.768;2023-05-23T09:54:27;101754.03;;;16.77;100.00
11987;BME280;6053;51.382;6.768;2023-05-23T09:57:01;101764.34;;;15.18;100.00
11987;BME280;6053;51.382;6.768;2023-05-23T09:59:36;101763.56;;;16.00;100.00
11987;BME280;6053;51.382;6.768;2023-05-23T10:02:10;101762.69;;;15.52;100.00
11987;BME280;6053;51.382;6.768;2023-05-23T10:04:40;101760.00;;;14.32;100.00
11987;BME280;6053;51.382;6.768;2023-05-23T10:07:13;101757.22;;;14.50;100.00
11987;BME280;6053;51.382;6.768;2023-05-23T10:09:44;101759.03;;;15.17;100.00
11987;BME280;6053;51.382;6.768;2023-05-23T10:12:44;101757.50;;;15.32;100.00
11987;BME280;6053;51.382;6.768;2023-05-23T10:15:17;101763.88;;;16.27;100.00
11987;BME280;6053;51.382;6.768;2023-05-23T10:17:57;101761.69;;;15.35;100.00
11987;BME280;6053;51.382;6.768;2023-05-23T10:20:32;101760.19;;;15.74;100.00
11987;BME280;6053;51.382;6.768;2023-05-23T10:23:17;101756.47;;;15.15;100.00
11987;BME280;6053;51.382;6.768;2023-05-23T10:25:55;101766.19;;;16.70;100.00
11987;BME280;6053;51.382;6.768;2023-05-23T10:28:25;101760.84;;;16.29;97.43
11987;BME280;6053;51.382;6.768;2023-05-23T10:30:56;101756.34;;;18.36;96.65
11987;BME280;6053;51.382;6.768;2023-05-23T10:33:26;101755.91;;;18.01;88.71
11987;BME280;6053;51.382;6.768;2023-05-23T10:36:03;101756.97;;;16.99;89.93
11987;BME280;6053;51.382;6.768;2023-05-23T10:38:43;101752.06;;;16.48;93.94
11987;BME280;6053;51.382;6.768;2023-05-23T10:41:22;101762.75;;;17.09;91.61
11987;BME280;6053;51.382;6.768;2023-05-23T10:44:01;101764.38;;;16.64;95.93
11987;BME280;6053;51.382;6.768;2023-05-23T10:46:51;101760.69;;;16.87;92.81
11987;BME280;6053;51.382;6.768;2023-05-23T10:49:37;101763.00;;;16.79;97.22
11987;BME280;6053;51.382;6.768;2023-05-23T10:52:07;101767.94;;;17.67;93.98
11987;BME280;6053;51.382;6.768;2023-05-23T10:54:42;101767.09;;;16.47;96.59
11987;BME280;6053;51.382;6.768;2023-05-23T10:57:14;101777.31;;;16.70;98.11
11987;BME280;6053;51.382;6.768;2023-05-23T10:59:46;101775.53;;;16.12;97.02
11987;BME280;6053;51.382;6.768;2023-05-23T11:02:25;101782.56;;;15.91;100.00
11987;BME280;6053;51.382;6.768;2023-05-23T11:05:20;101794.25;;;16.29;100.00
11987;BME280;6053;51.382;6.768;2023-05-23T11:08:07;101781.84;;;15.84;100.00
11987;BME280;6053;51.382;6.768;2023-05-23T11:10:57;101793.09;;;17.39;95.07
11987;BME280;6053;51.382;6.768;2023-05-23T11:13:55;101791.06;;;15.96;94.77
11987;BME280;6053;51.382;6.768;2023-05-23T11:16:30;101787.09;;;16.44;95.18
11987;BME280;6053;51.382;6.768;2023-05-23T11:19:22;101796.25;;;15.27;100.00
11987;BME280;6053;51.382;6.768;2023-05-23T11:21:57;101783.53;;;15.97;99.11
11987;BME280;6053;51.382;6.768;2023-05-23T11:24:46;101785.81;;;16.76;90.32
11987;BME280;6053;51.382;6.768;2023-05-23T11:27:17;101786.69;;;17.55;84.96
11987;BME280;6053;51.382;6.768;2023-05-23T11:29:59;101783.94;;;17.10;82.29
11987;BME280;6053;51.382;6.768;2023-05-23T11:32:34;101789.88;;;16.85;86.71
11987;BME280;6053;51.382;6.768;2023-05-23T11:35:07;101786.16;;;17.08;89.49
11987;BME280;6053;51.382;6.768;2023-05-23T11:37:39;101798.03;;;15.64;100.00
11987;BME280;6053;51.382;6.768;2023-05-23T11:40:26;101796.78;;;15.36;98.11
11987;BME280;6053;51.382;6.768;2023-05-23T11:42:59;101798.84;;;17.32;95.14
11987;BME280;6053;51.382;6.768;2023-05-23T11:45:29;101806.50;;;16.80;95.21
11987;BME280;6053;51.382;6.768;2023-05-23T11:48:08;101795.88;;;17.22;93.31
11987;BME280;6053;51.382;6.768;2023-05-23T11:50:44;101794.75;;;16.66;89.21
11987;BME280;6053;51.382;6.768;2023-05-23T11:53:14;101795.66;;;16.55;89.38
11987;BME280;6053;51.382;6.768;2023-05-23T11:55:52;101791.75;;;17.75;87.67
11987;BME280;6053;51.382;6.768;2023-05-23T11:58:22;101795.50;;;18.20;84.32
11987;BME280;6053;51.382;6.768;2023-05-23T12:00:59;101794.75;;;18.24;83.97
11987;BME280;6053;51.382;6.768;2023-05-23T12:03:30;101801.13;;;18.64;84.26
11987;BME280;6053;51.382;6.768;2023-05-23T12:05:59;101803.94;;;17.69;83.05
11987;BME280;6053;51.382;6.768;2023-05-23T12:08:28;101809.13;;;17.77;87.71
11987;BME280;6053;51.382;6.768;2023-05-23T12:10:59;101808.59;;;18.58;84.53
11987;BME280;6053;51.382;6.768;2023-05-23T12:13:29;101804.44;;;18.00;80.75
11987;BME280;6053;51.382;6.768;2023-05-23T12:16:00;101802.03;;;18.91;78.29
11987;BME280;6053;51.382;6.768;2023-05-23T12:18:31;101803.28;;;18.34;67.63
11987;BME280;6053;51.382;6.768;2023-05-23T12:21:03;101805.19;;;18.12;71.35
11987;BME280;6053;51.382;6.768;2023-05-23T12:23:34;101802.47;;;19.64;71.45
11987;BME280;6053;51.382;6.768;2023-05-23T12:26:04;101800.28;;;18.63;70.86
11987;BME280;6053;51.382;6.768;2023-05-23T12:28:37;101805.94;;;18.24;66.08
11987;BME280;6053;51.382;6.768;2023-05-23T12:31:11;101808.00;;;19.00;66.77
11987;BME280;6053;51.382;6.768;2023-05-23T12:33:47;101796.66;;;19.12;66.63
11987;BME280;6053;51.382;6.768;2023-05-23T12:36:21;101810.53;;;19.61;63.10
11987;BME280;6053;51.382;6.768;2023-05-23T12:38:51;101798.31;;;18.64;63.26
11987;BME280;6053;51.382;6.768;2023-05-23T12:41:22;101803.56;;;19.95;64.04
11987;BME280;6053;51.382;6.768;2023-05-23T12:43:53;101790.84;;;18.91;65.55
11987;BME280;6053;51.382;6.768;2023-05-23T12:46:25;101799.38;;;19.34;60.16
11987;BME280;6053;51.382;6.768;2023-05-23T12:48:59;101798.31;;;19.67;60.00
11987;BME280;6053;51.382;6.768;2023-05-23T12:51:28;101798.66;;;20.18;63.93
11987;BME280;6053;51.382;6.768;2023-05-23T12:53:58;101784.66;;;19.43;59.72
11987;BME280;6053;51.382;6.768;2023-05-23T12:56:27;101801.25;;;19.87;59.45
11987;BME280;6053;51.382;6.768;2023-05-23T12:58:58;101797.41;;;19.98;58.82
11987;BME280;6053;51.382;6.768;2023-05-23T13:01:28;101790.81;;;19.72;62.62
11987;BME280;6053;51.382;6.768;2023-05-23T13:03:59;101792.00;;;19.87;61.31
11987;BME280;6053;51.382;6.768;2023-05-23T13:06:28;101803.16;;;19.82;60.94
11987;BME280;6053;51.382;6.768;2023-05-23T13:08:58;101787.19;;;18.91;59.56
11987;BME280;6053;51.382;6.768;2023-05-23T13:11:27;101790.53;;;18.44;65.51
11987;BME280;6053;51.382;6.768;2023-05-23T13:13:57;101790.53;;;18.22;64.19
11987;BME280;6053;51.382;6.768;2023-05-23T13:16:27;101790.66;;;18.54;65.97